createdAt,value
2019-05-10T12:23:13.267Z,20.60
2019-05-10T12:25:57.332Z,20.70
2019-05-10T12:28:10.721Z,20.90
2019-05-10T12:30:41.027Z,20.50
2019-05-10T12:33:23.857Z,20.80
2019-05-10T12:35:47.225Z,20.90
2019-05-10T12:38:15.321Z,20.70
2019-05-10T12:40:45.972Z,20.60
2019-05-10T12:43:16.657Z,20.80
2019-05-10T12:45:47.064Z,20.80
2019-05-10T12:48:17.343Z,20.50
2019-05-10T12:50:47.765Z,20.60
2019-05-10T12:53:18.599Z,20.80
2019-05-10T12:55:49.087Z,20.50
2019-05-10T12:58:19.792Z,20.20
2019-05-10T13:00:52.366Z,20.40
2019-05-10T13:03:25.122Z,20.40
2019-05-10T13:05:54.019Z,20.40
2019-05-10T13:08:24.232Z,20.20
2019-05-10T13:10:54.503Z,20.20
2019-05-10T13:13:29.795Z,20.00
2019-05-10T13:15:56.817Z,19.90
2019-05-10T13:18:49.181Z,19.30
2019-05-10T13:20:58.936Z,19.10
2019-05-10T13:23:29.283Z,18.90
2019-05-10T13:25:59.677Z,18.60
2019-05-10T13:28:29.961Z,18.60
2019-05-10T13:31:05.578Z,18.60
2019-05-10T13:33:40.906Z,18.50
2019-05-10T13:36:04.033Z,18.20
2019-05-10T13:38:36.942Z,18.10
2019-05-10T13:41:06.400Z,18.00
2019-05-10T13:43:36.825Z,18.10
2019-05-10T13:46:07.289Z,18.10
2019-05-10T13:48:37.581Z,18.20
2019-05-10T13:51:07.952Z,18.20
2019-05-10T13:53:38.145Z,18.20
2019-05-10T13:56:08.478Z,18.50
2019-05-10T13:58:38.765Z,18.70
2019-05-10T14:01:13.029Z,18.90
2019-05-10T14:03:44.293Z,19.20
2019-05-10T14:06:13.058Z,19.70
2019-05-10T14:08:48.207Z,20.00
2019-05-10T14:11:15.459Z,20.30
2019-05-10T14:13:45.678Z,20.60
2019-05-10T14:16:19.757Z,20.90
2019-05-10T14:18:48.108Z,21.20
2019-05-10T14:21:18.476Z,21.60
2019-05-10T14:23:48.866Z,22.00
2019-05-10T14:26:19.157Z,22.50
2019-05-10T14:28:53.058Z,22.90
2019-05-10T14:31:21.516Z,23.50
2019-05-10T14:34:14.129Z,24.10
2019-05-10T14:36:23.750Z,24.50
2019-05-10T14:38:56.140Z,24.80
2019-05-10T14:41:25.850Z,25.00
2019-05-10T14:43:56.269Z,25.20
2019-05-10T14:46:26.578Z,25.30
2019-05-10T14:48:56.911Z,25.30
2019-05-10T14:51:44.171Z,25.10
2019-05-10T14:54:06.450Z,25.00
2019-05-10T14:56:31.246Z,24.90
2019-05-10T14:59:01.477Z,24.80
2019-05-10T15:01:36.915Z,24.90
2019-05-10T15:04:03.892Z,24.70
2019-05-10T15:06:36.803Z,24.20
2019-05-10T15:09:20.412Z,23.60
2019-05-10T15:11:40.415Z,23.60
2019-05-10T15:14:10.732Z,23.30
2019-05-10T15:16:40.980Z,23.30
2019-05-10T15:19:11.178Z,22.90
2019-05-10T15:21:41.352Z,23.00
2019-05-10T15:24:11.676Z,22.90
2019-05-10T15:26:44.024Z,22.80
2019-05-10T15:29:15.040Z,22.60
2019-05-10T15:31:45.690Z,22.40
2019-05-10T15:34:16.016Z,21.80
2019-05-10T15:36:46.330Z,21.60
2019-05-10T15:39:16.604Z,21.20
2019-05-10T15:41:46.879Z,21.00
2019-05-10T15:44:17.084Z,20.50
2019-05-10T15:46:47.318Z,20.30
2019-05-10T15:49:22.654Z,20.20
2019-05-10T15:51:56.816Z,20.10
2019-05-10T15:54:21.450Z,20.00
2019-05-10T15:56:55.245Z,19.80
2019-05-10T15:59:24.172Z,19.60
2019-05-10T16:01:54.631Z,19.60
2019-05-10T16:04:24.992Z,19.50
2019-05-10T16:06:55.324Z,19.30
2019-05-10T16:09:25.530Z,19.20
2019-05-10T16:12:01.477Z,19.00
2019-05-10T16:14:32.968Z,19.00
2019-05-10T16:16:59.752Z,19.10
2019-05-10T16:19:29.975Z,19.50
2019-05-10T16:22:00.375Z,19.70
2019-05-10T16:24:30.694Z,19.90
2019-05-10T16:27:01.893Z,20.10
2019-05-10T16:29:33.781Z,20.20
2019-05-10T16:32:04.328Z,20.20
2019-05-10T16:34:34.739Z,19.90
2019-05-10T16:37:04.920Z,19.80
2019-05-10T16:39:35.264Z,19.20
2019-05-10T16:42:05.632Z,18.80
2019-05-10T16:44:36.135Z,18.80
2019-05-10T16:47:06.379Z,18.70
2019-05-10T16:49:40.286Z,18.70
2019-05-10T16:52:10.523Z,18.60
2019-05-10T16:54:40.909Z,18.60
2019-05-10T16:57:11.233Z,18.60
2019-05-10T16:59:41.616Z,18.30
2019-05-10T17:02:12.053Z,18.10
2019-05-10T17:04:42.593Z,17.80
2019-05-10T17:07:19.294Z,17.70
2019-05-10T17:09:49.400Z,17.70
2019-05-10T17:12:16.979Z,17.70
2019-05-10T17:14:50.639Z,17.70
2019-05-10T17:17:19.313Z,17.60
2019-05-10T17:19:49.497Z,17.60
2019-05-10T17:22:19.718Z,17.50
2019-05-10T17:24:49.930Z,17.10
2019-05-10T17:27:20.205Z,16.70
2019-05-10T17:29:51.360Z,16.30
2019-05-10T17:32:24.567Z,16.30
2019-05-10T17:34:53.614Z,16.30
2019-05-10T17:37:23.887Z,16.40
2019-05-10T17:39:54.151Z,16.30
2019-05-10T17:42:24.397Z,16.30
2019-05-10T17:44:55.307Z,16.30
2019-05-10T17:47:27.212Z,16.10
2019-05-10T17:49:58.664Z,16.20
2019-05-10T17:52:28.927Z,16.00
2019-05-10T17:54:59.203Z,16.00
2019-05-10T17:57:29.479Z,15.70
2019-05-10T17:59:59.678Z,15.50
2019-05-10T18:02:29.922Z,15.50
2019-05-10T18:05:05.981Z,15.70
2019-05-10T18:07:32.166Z,15.80
2019-05-10T18:10:02.440Z,15.90
2019-05-10T18:12:32.793Z,15.90
2019-05-10T18:15:04.979Z,15.90
2019-05-10T18:17:35.118Z,16.00
2019-05-10T18:20:05.652Z,16.00
2019-05-10T18:22:42.827Z,15.90
2019-05-10T18:25:19.345Z,16.00
2019-05-10T18:27:40.063Z,16.10
2019-05-10T18:30:10.734Z,16.00
2019-05-10T18:32:41.211Z,16.00
2019-05-10T18:35:14.714Z,15.90
2019-05-10T18:37:44.285Z,15.80
2019-05-10T18:40:14.882Z,15.70
2019-05-10T18:42:45.189Z,15.60
2019-05-10T18:45:15.638Z,15.70
2019-05-10T18:47:46.211Z,15.60
2019-05-10T18:50:16.391Z,15.60
2019-05-10T18:52:46.656Z,15.60
2019-05-10T18:55:16.953Z,15.60
2019-05-10T18:57:50.445Z,15.50
2019-05-10T19:00:23.094Z,15.50
2019-05-10T19:02:55.246Z,15.50
2019-05-10T19:05:24.933Z,15.50
2019-05-10T19:08:04.600Z,15.40
2019-05-10T19:10:27.693Z,15.30
2019-05-10T19:13:01.363Z,15.20
2019-05-10T19:15:29.906Z,15.10
2019-05-10T19:18:00.242Z,15.10
2019-05-10T19:20:30.371Z,15.00
2019-05-10T19:23:00.688Z,14.90
2019-05-10T19:25:30.910Z,14.80
2019-05-10T19:28:01.211Z,14.80
2019-05-10T19:30:31.454Z,14.70
2019-05-10T19:33:01.666Z,14.60
2019-05-10T19:35:35.658Z,14.50
2019-05-10T19:38:03.969Z,14.40
2019-05-10T19:40:34.281Z,14.30
2019-05-10T19:43:04.543Z,14.20
2019-05-10T19:45:34.773Z,14.20
2019-05-10T19:48:06.014Z,14.20
2019-05-10T19:50:36.526Z,14.20
2019-05-10T19:53:06.730Z,14.10
2019-05-10T19:55:36.943Z,14.10
2019-05-10T19:58:07.154Z,14.00
2019-05-10T20:00:37.423Z,13.90
2019-05-10T20:03:07.784Z,13.80
2019-05-10T20:05:38.109Z,13.70
2019-05-10T20:08:08.489Z,13.70
2019-05-10T20:10:38.687Z,13.60
2019-05-10T20:13:09.050Z,13.50
2019-05-10T20:15:39.270Z,13.40
2019-05-10T20:18:09.705Z,13.40
2019-05-10T20:20:40.279Z,13.30
2019-05-10T20:23:10.602Z,13.30
2019-05-10T20:25:40.800Z,13.20
2019-05-10T20:28:11.064Z,13.20
2019-05-10T20:30:41.394Z,13.10
2019-05-10T20:33:11.773Z,13.10
2019-05-10T20:35:42.144Z,13.00
2019-05-10T20:38:12.420Z,13.00
2019-05-10T20:40:42.606Z,12.90
2019-05-10T20:43:12.825Z,12.90
2019-05-10T20:45:43.269Z,12.80
2019-05-10T20:48:13.492Z,12.70
2019-05-10T20:50:43.958Z,12.60
2019-05-10T20:53:14.306Z,12.50
2019-05-10T20:55:44.608Z,12.40
2019-05-10T20:58:14.923Z,12.30
2019-05-10T21:00:45.284Z,12.30
2019-05-10T21:03:15.504Z,12.20
2019-05-10T21:05:45.932Z,12.20
2019-05-10T21:08:17.394Z,12.10
2019-05-10T21:10:47.984Z,12.10
2019-05-10T21:13:18.263Z,12.00
2019-05-10T21:15:48.475Z,12.00
2019-05-10T21:18:18.754Z,11.90
2019-05-10T21:20:49.004Z,11.90
2019-05-10T21:23:19.274Z,11.90
2019-05-10T21:25:49.682Z,11.90
2019-05-10T21:28:19.949Z,11.80
2019-05-10T21:30:53.276Z,11.80
2019-05-10T21:33:22.128Z,11.80
2019-05-10T21:35:52.337Z,11.80
2019-05-10T21:38:32.712Z,11.80
2019-05-10T21:40:54.691Z,11.80
2019-05-10T21:43:25.095Z,11.70
2019-05-10T21:45:55.323Z,11.70
2019-05-10T21:48:25.665Z,11.70
2019-05-10T21:50:56.047Z,11.70
2019-05-10T21:53:26.179Z,11.80
2019-05-10T21:55:56.493Z,11.80
2019-05-10T21:58:26.710Z,11.80
2019-05-10T22:00:57.013Z,11.80
2019-05-10T22:03:27.214Z,11.80
2019-05-10T22:05:57.570Z,11.80
2019-05-10T22:08:27.919Z,11.80
2019-05-10T22:10:58.302Z,11.80
2019-05-10T22:13:28.460Z,11.80
2019-05-10T22:15:58.786Z,11.80
2019-05-10T22:18:29.229Z,11.80
2019-05-10T22:20:59.599Z,11.80
2019-05-10T22:23:29.838Z,11.80
2019-05-10T22:26:00.159Z,11.90
2019-05-10T22:28:30.518Z,11.90
2019-05-10T22:31:00.879Z,11.90
2019-05-10T22:33:31.249Z,12.00
2019-05-10T22:36:01.534Z,12.00
2019-05-10T22:38:31.805Z,11.90
2019-05-10T22:41:02.009Z,11.90
2019-05-10T22:43:32.357Z,12.00
2019-05-10T22:46:02.716Z,12.00
2019-05-10T22:48:32.966Z,12.00
2019-05-10T22:51:03.270Z,12.00
2019-05-10T22:53:33.600Z,12.00
2019-05-10T22:56:03.977Z,12.00
2019-05-10T22:58:34.293Z,12.00
2019-05-10T23:01:04.504Z,12.00
2019-05-10T23:03:34.722Z,12.00
2019-05-10T23:06:05.013Z,12.00
2019-05-10T23:08:35.315Z,12.00
2019-05-10T23:11:05.718Z,12.00
2019-05-10T23:13:36.095Z,12.00
2019-05-10T23:16:06.277Z,12.00
2019-05-10T23:18:36.522Z,12.00
2019-05-10T23:21:06.782Z,12.00
2019-05-10T23:23:36.991Z,11.90
2019-05-10T23:26:07.296Z,11.90
2019-05-10T23:28:37.651Z,11.90
2019-05-10T23:31:07.859Z,11.90
2019-05-10T23:33:38.150Z,11.90
2019-05-10T23:36:08.346Z,11.90
2019-05-10T23:38:38.688Z,11.80
2019-05-10T23:41:08.991Z,11.80
2019-05-10T23:43:39.197Z,11.80
2019-05-10T23:46:09.462Z,11.80
2019-05-10T23:48:39.850Z,11.80
2019-05-10T23:51:10.031Z,11.70
2019-05-10T23:53:40.380Z,11.70
2019-05-10T23:56:10.702Z,11.70
2019-05-10T23:58:40.872Z,11.60
